createdAt,value
2022-12-12T00:00:10.507Z,21.67
2022-12-12T00:02:43.552Z,21.63
2022-12-12T00:05:17.670Z,22.83
2022-12-12T00:07:50.492Z,24.63
2022-12-12T00:10:25.824Z,24.63
2022-12-12T00:13:00.825Z,20.37
2022-12-12T00:15:33.631Z,25.13
2022-12-12T00:18:06.607Z,21.80
2022-12-12T00:20:41.973Z,22.00
2022-12-12T00:23:14.869Z,21.07
2022-12-12T00:25:57.128Z,26.30
2022-12-12T00:28:31.688Z,24.77
2022-12-12T00:31:04.552Z,16.43
2022-12-12T00:33:37.317Z,21.73
2022-12-12T00:36:10.280Z,23.07
2022-12-12T00:38:42.905Z,26.83
2022-12-12T00:41:15.947Z,24.27
2022-12-12T00:43:50.254Z,23.07
2022-12-12T00:46:23.828Z,23.53
2022-12-12T00:48:58.106Z,26.03
2022-12-12T00:51:31.622Z,25.83
2022-12-12T00:54:04.397Z,26.13
2022-12-12T00:56:37.268Z,24.60
2022-12-12T00:59:11.668Z,26.90
2022-12-12T01:01:45.806Z,19.10
2022-12-12T01:04:18.922Z,24.80
2022-12-12T01:06:51.685Z,26.43
2022-12-12T01:09:24.442Z,29.37
2022-12-12T01:11:57.273Z,24.17
2022-12-12T01:14:33.931Z,27.77
2022-12-12T01:17:06.816Z,23.73
2022-12-12T01:19:39.658Z,19.33
2022-12-12T01:22:12.357Z,23.53
2022-12-12T01:24:47.807Z,27.03
2022-12-12T01:27:22.913Z,27.60
2022-12-12T01:30:01.677Z,25.03
2022-12-12T01:32:34.570Z,20.97
2022-12-12T01:35:08.285Z,26.43
2022-12-12T01:37:43.772Z,23.93
2022-12-12T01:40:17.826Z,28.73
2022-12-12T01:42:52.049Z,23.17
2022-12-12T01:45:43.515Z,25.63
2022-12-12T01:48:18.088Z,26.73
2022-12-12T01:50:51.312Z,24.60
2022-12-12T01:53:25.609Z,21.70
2022-12-12T01:55:58.562Z,20.63
2022-12-12T01:58:31.618Z,24.83
2022-12-12T02:01:04.579Z,20.53
2022-12-12T02:03:40.005Z,24.77
2022-12-12T02:06:20.236Z,28.77
2022-12-12T02:08:54.502Z,25.63
2022-12-12T02:11:33.458Z,25.27
2022-12-12T02:14:06.182Z,27.43
2022-12-12T02:16:59.525Z,27.50
2022-12-12T02:19:42.786Z,22.60
2022-12-12T02:22:20.269Z,26.90
2022-12-12T02:25:01.910Z,26.03
2022-12-12T02:27:41.458Z,22.67
2022-12-12T02:30:17.626Z,24.67
2022-12-12T02:33:20.458Z,27.23
2022-12-12T02:35:59.437Z,27.87
2022-12-12T02:38:35.156Z,22.43
2022-12-12T02:41:14.956Z,23.13
2022-12-12T02:43:55.293Z,29.80
2022-12-12T02:46:30.265Z,24.97
2022-12-12T02:49:04.036Z,24.97
2022-12-12T02:51:41.575Z,25.43
2022-12-12T02:54:15.129Z,24.90
2022-12-12T02:56:52.429Z,32.13
2022-12-12T02:59:26.979Z,28.40
2022-12-12T03:02:09.892Z,29.10
2022-12-12T03:05:05.209Z,27.37
2022-12-12T03:07:50.418Z,27.63
2022-12-12T03:10:33.735Z,30.33
2022-12-12T03:13:10.353Z,22.70
2022-12-12T03:15:48.485Z,28.30
2022-12-12T03:18:24.424Z,27.40
2022-12-12T03:21:02.970Z,27.80
2022-12-12T03:23:41.708Z,28.93
2022-12-12T03:26:16.093Z,30.73
2022-12-12T03:28:50.485Z,30.63
2022-12-12T03:31:26.669Z,27.40
2022-12-12T03:34:04.033Z,31.53
2022-12-12T03:36:39.012Z,31.97
2022-12-12T03:39:16.375Z,34.30
2022-12-12T03:41:54.021Z,25.53
2022-12-12T03:44:29.119Z,30.47
2022-12-12T03:47:04.733Z,29.47
2022-12-12T03:49:44.378Z,29.63
2022-12-12T03:52:21.430Z,29.13
2022-12-12T03:54:59.821Z,26.20
2022-12-12T03:57:34.575Z,30.60
2022-12-12T04:00:08.626Z,27.30
2022-12-12T04:02:43.951Z,25.73
2022-12-12T04:05:19.129Z,30.77
2022-12-12T04:07:53.780Z,27.80
2022-12-12T04:10:47.152Z,26.37
2022-12-12T04:13:31.931Z,28.30
2022-12-12T04:16:07.395Z,27.97
2022-12-12T04:18:47.635Z,29.77
2022-12-12T04:21:45.965Z,26.17
2022-12-12T04:24:23.375Z,26.33
2022-12-12T04:27:01.411Z,24.63
2022-12-12T04:29:38.676Z,24.43
2022-12-12T04:32:14.511Z,22.47
2022-12-12T04:34:50.633Z,22.23
2022-12-12T04:37:29.121Z,22.37
2022-12-12T04:40:03.830Z,18.80
2022-12-12T04:42:40.101Z,24.63
2022-12-12T04:45:16.417Z,22.43
2022-12-12T04:47:52.965Z,22.80
2022-12-12T04:50:28.630Z,19.10
2022-12-12T04:53:02.949Z,20.13
2022-12-12T04:55:36.841Z,24.17
2022-12-12T04:58:11.254Z,17.40
2022-12-12T05:00:47.777Z,14.30
2022-12-12T05:03:22.263Z,20.20
2022-12-12T05:05:57.737Z,16.87
2022-12-12T05:08:33.299Z,14.43
2022-12-12T05:11:06.775Z,13.80
2022-12-12T05:13:42.276Z,14.13
2022-12-12T05:16:18.224Z,12.80
2022-12-12T05:18:51.082Z,13.20
2022-12-12T05:21:23.966Z,15.43
2022-12-12T05:23:57.407Z,9.30
2022-12-12T05:26:34.173Z,11.17
2022-12-12T05:29:08.310Z,11.90
2022-12-12T05:31:41.072Z,11.53
2022-12-12T05:34:16.522Z,13.30
2022-12-12T05:36:49.603Z,12.00
2022-12-12T05:39:22.456Z,11.50
2022-12-12T05:41:55.212Z,10.90
2022-12-12T05:44:29.458Z,10.80
2022-12-12T05:47:02.206Z,9.17
2022-12-12T05:49:34.975Z,9.23
2022-12-12T05:52:07.900Z,8.53
2022-12-12T05:54:41.225Z,9.27
2022-12-12T05:57:13.881Z,10.03
2022-12-12T05:59:48.052Z,9.57
2022-12-12T06:02:21.144Z,5.43
2022-12-12T06:04:53.965Z,7.43
2022-12-12T06:07:26.678Z,5.43
2022-12-12T06:09:59.440Z,8.10
2022-12-12T06:12:34.573Z,9.90
2022-12-12T06:15:09.346Z,8.17
2022-12-12T06:17:42.198Z,7.20
2022-12-12T06:20:14.935Z,7.73
2022-12-12T06:22:53.849Z,8.43
2022-12-12T06:25:27.077Z,6.53
2022-12-12T06:27:59.807Z,10.37
2022-12-12T06:30:33.909Z,9.43
2022-12-12T06:33:08.706Z,9.73
2022-12-12T06:35:41.531Z,7.97
2022-12-12T06:38:14.314Z,5.23
2022-12-12T06:40:47.105Z,8.43
2022-12-12T06:43:19.934Z,8.37
2022-12-12T06:45:54.163Z,7.53
2022-12-12T06:48:26.948Z,7.43
2022-12-12T06:51:00.207Z,8.23
2022-12-12T06:53:32.912Z,8.47
2022-12-12T06:56:09.883Z,7.53
2022-12-12T06:58:43.230Z,7.27
2022-12-12T07:01:19.513Z,8.40
2022-12-12T07:03:55.534Z,7.70
2022-12-12T07:06:28.720Z,9.67
2022-12-12T07:09:02.965Z,8.43
2022-12-12T07:11:35.898Z,7.40
2022-12-12T07:14:08.878Z,9.37
2022-12-12T07:16:43.721Z,8.57
2022-12-12T07:19:19.017Z,8.33
2022-12-12T07:21:51.815Z,8.90
2022-12-12T07:24:26.315Z,8.17
2022-12-12T07:26:59.160Z,9.10
2022-12-12T07:29:31.853Z,9.23
2022-12-12T07:32:06.133Z,7.50
2022-12-12T07:34:38.936Z,8.17
2022-12-12T07:37:11.750Z,7.80
2022-12-12T07:39:44.711Z,7.97
2022-12-12T07:42:17.431Z,7.30
2022-12-12T07:44:50.619Z,7.23
2022-12-12T07:47:24.926Z,9.23
2022-12-12T07:49:57.692Z,7.33
2022-12-12T07:52:30.495Z,7.43
2022-12-12T07:55:03.487Z,8.10
2022-12-12T07:57:36.412Z,6.90
2022-12-12T08:00:10.461Z,6.80
2022-12-12T08:02:44.709Z,9.30
2022-12-12T08:05:17.802Z,8.70
2022-12-12T08:07:53.817Z,7.50
2022-12-12T08:10:28.886Z,7.10
2022-12-12T08:13:01.842Z,7.33
2022-12-12T08:15:37.113Z,8.70
2022-12-12T08:18:11.430Z,6.97
2022-12-12T08:20:44.283Z,8.23
2022-12-12T08:23:19.652Z,7.20
2022-12-12T08:25:55.364Z,10.03
2022-12-12T08:28:28.196Z,6.90
2022-12-12T08:31:01.023Z,7.37
2022-12-12T08:33:35.174Z,7.20
2022-12-12T08:36:15.497Z,8.70
2022-12-12T08:38:51.436Z,6.50
2022-12-12T08:41:25.079Z,9.47
2022-12-12T08:43:57.771Z,7.03
2022-12-12T08:46:30.808Z,8.90
2022-12-12T08:49:05.113Z,6.97
2022-12-12T08:51:38.979Z,7.40
2022-12-12T08:54:12.421Z,7.50
2022-12-12T08:56:47.923Z,7.77
2022-12-12T08:59:21.134Z,6.87
2022-12-12T09:01:54.076Z,5.53
2022-12-12T09:04:28.359Z,6.90
2022-12-12T09:07:06.652Z,7.37
2022-12-12T09:09:41.277Z,6.27
2022-12-12T09:12:14.378Z,6.83
2022-12-12T09:14:47.298Z,7.13
2022-12-12T09:17:20.087Z,6.83
2022-12-12T09:19:55.198Z,7.00
2022-12-12T09:22:27.897Z,8.67
2022-12-12T09:25:00.962Z,6.60
2022-12-12T09:27:33.840Z,6.10
2022-12-12T09:30:07.445Z,6.50
2022-12-12T09:32:42.461Z,5.93
2022-12-12T09:35:16.874Z,6.20
2022-12-12T09:37:49.739Z,7.30
2022-12-12T09:40:28.946Z,6.60
2022-12-12T09:43:02.616Z,7.43
2022-12-12T09:45:37.117Z,7.03
2022-12-12T09:48:11.456Z,7.50
2022-12-12T09:50:48.465Z,7.13
2022-12-12T09:53:23.955Z,7.60
2022-12-12T09:56:01.867Z,7.00
2022-12-12T09:58:42.073Z,9.50
2022-12-12T10:01:21.960Z,6.23
2022-12-12T10:04:01.269Z,7.03
2022-12-12T10:06:39.795Z,7.47
2022-12-12T10:09:28.380Z,6.00
2022-12-12T10:12:06.476Z,7.67
2022-12-12T10:14:44.098Z,4.97
2022-12-12T10:17:20.507Z,3.17
2022-12-12T10:19:54.345Z,6.00
2022-12-12T10:22:31.067Z,5.93
2022-12-12T10:25:07.315Z,5.17
2022-12-12T10:27:42.589Z,5.77
2022-12-12T10:30:17.046Z,5.10
2022-12-12T10:33:03.804Z,5.43
2022-12-12T10:35:40.807Z,5.53
2022-12-12T10:38:25.642Z,6.13
2022-12-12T10:41:01.614Z,4.83
2022-12-12T10:43:36.758Z,5.43
2022-12-12T10:46:14.395Z,4.70
2022-12-12T10:48:48.928Z,5.27
2022-12-12T10:51:27.524Z,4.00
2022-12-12T10:54:02.165Z,5.13
2022-12-12T10:56:34.982Z,4.43
2022-12-12T10:59:08.181Z,4.27
2022-12-12T11:02:11.307Z,4.40
2022-12-12T11:04:34.036Z,3.07
2022-12-12T11:07:06.944Z,4.57
2022-12-12T11:09:45.783Z,4.73
2022-12-12T11:12:20.900Z,4.70
2022-12-12T11:14:54.560Z,6.40
2022-12-12T11:17:28.035Z,6.33
2022-12-12T11:20:01.983Z,6.20
2022-12-12T11:22:34.927Z,5.63
2022-12-12T11:25:22.021Z,5.27
2022-12-12T11:27:55.303Z,5.57
2022-12-12T11:30:31.625Z,7.97
2022-12-12T11:33:06.737Z,6.87
2022-12-12T11:35:47.037Z,5.73
2022-12-12T11:38:22.753Z,5.10
2022-12-12T11:41:02.334Z,5.97
2022-12-12T11:43:37.115Z,5.43
2022-12-12T11:46:22.807Z,5.77
2022-12-12T11:49:02.771Z,6.23
2022-12-12T11:51:37.369Z,7.50
2022-12-12T11:54:12.932Z,8.83
2022-12-12T11:56:51.317Z,6.57
2022-12-12T11:59:35.996Z,7.73
2022-12-12T12:02:27.254Z,8.50
2022-12-12T12:05:06.402Z,7.63
2022-12-12T12:07:50.455Z,9.23
2022-12-12T12:10:28.882Z,8.63
2022-12-12T12:13:12.315Z,9.37
2022-12-12T12:15:51.254Z,9.33
2022-12-12T12:18:33.904Z,6.53
2022-12-12T12:21:24.437Z,8.97
2022-12-12T12:24:12.816Z,7.97
2022-12-12T12:26:49.936Z,8.47
2022-12-12T12:29:46.810Z,7.83
2022-12-12T12:32:25.216Z,8.37
2022-12-12T12:35:07.432Z,12.53
2022-12-12T12:37:46.128Z,6.67
2022-12-12T12:40:24.948Z,8.13
2022-12-12T12:43:05.783Z,6.97
2022-12-12T12:45:46.261Z,6.07
2022-12-12T12:48:23.510Z,4.23
2022-12-12T12:51:04.411Z,5.43
2022-12-12T12:53:39.092Z,3.83
2022-12-12T12:56:19.046Z,6.27
2022-12-12T12:58:56.621Z,5.57
2022-12-12T13:01:32.983Z,5.80
2022-12-12T13:04:13.300Z,2.97
2022-12-12T13:06:52.592Z,4.70
2022-12-12T13:09:28.948Z,4.93
2022-12-12T13:12:11.138Z,8.43
2022-12-12T13:14:47.317Z,7.13
2022-12-12T13:17:23.781Z,5.37
2022-12-12T13:19:58.798Z,3.07
2022-12-12T13:22:40.399Z,5.03
2022-12-12T13:25:15.879Z,4.50
2022-12-12T13:27:51.601Z,6.77
2022-12-12T13:30:28.039Z,3.13
2022-12-12T13:33:11.819Z,5.53
2022-12-12T13:35:48.985Z,5.83
2022-12-12T13:38:24.694Z,5.47
2022-12-12T13:40:58.806Z,6.50
2022-12-12T13:43:43.466Z,7.17
2022-12-12T13:46:43.709Z,4.70
2022-12-12T13:49:31.569Z,5.67
2022-12-12T13:52:23.341Z,6.03
2022-12-12T13:55:19.047Z,7.63
2022-12-12T13:58:07.986Z,7.77
2022-12-12T14:00:41.395Z,8.67
2022-12-12T14:03:22.135Z,5.93
2022-12-12T14:05:57.966Z,5.43
2022-12-12T14:08:32.793Z,8.37
2022-12-12T14:11:08.134Z,11.27
2022-12-12T14:13:43.169Z,7.73
2022-12-12T14:16:23.119Z,8.87
2022-12-12T14:19:04.378Z,8.13
2022-12-12T14:21:42.399Z,9.27
2022-12-12T14:24:35.187Z,8.27
2022-12-12T14:27:09.767Z,8.63
2022-12-12T14:29:43.450Z,6.27
2022-12-12T14:32:27.082Z,10.80
2022-12-12T14:35:08.875Z,9.23
2022-12-12T14:37:51.798Z,9.90
2022-12-12T14:40:25.916Z,5.40
2022-12-12T14:43:18.894Z,10.57
2022-12-12T14:45:55.529Z,10.63
2022-12-12T14:48:28.879Z,9.60
2022-12-12T14:51:04.486Z,10.93
2022-12-12T14:53:46.961Z,12.00
2022-12-12T14:56:20.646Z,10.07
2022-12-12T14:58:59.663Z,9.33
2022-12-12T15:01:37.380Z,12.67
2022-12-12T15:04:14.398Z,11.63
2022-12-12T15:06:51.177Z,10.90
2022-12-12T15:09:26.125Z,7.20
2022-12-12T15:12:10.095Z,9.57
2022-12-12T15:14:54.214Z,9.00
2022-12-12T15:17:28.724Z,11.10
2022-12-12T15:20:09.298Z,10.43
2022-12-12T15:22:50.973Z,12.53
2022-12-12T15:25:27.321Z,12.17
2022-12-12T15:28:03.124Z,8.77
2022-12-12T15:30:39.485Z,8.83
2022-12-12T15:33:17.331Z,11.03
2022-12-12T15:35:50.700Z,7.73
2022-12-12T15:38:23.603Z,11.10
2022-12-12T15:40:58.543Z,10.80
2022-12-12T15:43:32.157Z,11.63
2022-12-12T15:46:15.130Z,7.83
2022-12-12T15:48:49.465Z,9.13
2022-12-12T15:51:25.281Z,9.50
2022-12-12T15:53:59.497Z,9.47
2022-12-12T15:56:32.414Z,6.60
2022-12-12T15:59:15.882Z,6.70
2022-12-12T16:01:50.199Z,7.67
2022-12-12T16:04:23.876Z,10.20
2022-12-12T16:07:15.211Z,10.03
2022-12-12T16:09:58.573Z,5.57
2022-12-12T16:12:50.060Z,9.50
2022-12-12T16:15:28.910Z,9.30
2022-12-12T16:18:04.753Z,9.10
2022-12-12T16:20:37.701Z,12.57
2022-12-12T16:23:20.848Z,9.77
2022-12-12T16:25:53.613Z,9.50
2022-12-12T16:28:27.206Z,10.03
2022-12-12T16:31:01.143Z,8.87
2022-12-12T16:33:38.169Z,7.23
2022-12-12T16:36:15.044Z,10.50
2022-12-12T16:38:47.903Z,10.73
2022-12-12T16:41:20.687Z,10.53
2022-12-12T16:43:53.550Z,10.47
2022-12-12T16:46:27.025Z,10.57
2022-12-12T16:49:04.747Z,10.00
2022-12-12T16:51:41.008Z,9.40
2022-12-12T16:54:16.124Z,7.93
2022-12-12T16:56:52.599Z,10.17
2022-12-12T16:59:25.575Z,9.53
2022-12-12T17:01:58.762Z,12.17
2022-12-12T17:04:33.451Z,13.47
2022-12-12T17:07:08.011Z,15.23
2022-12-12T17:09:40.876Z,11.47
2022-12-12T17:12:15.400Z,12.73
2022-12-12T17:14:48.303Z,8.20
2022-12-12T17:17:20.986Z,10.57
2022-12-12T17:19:55.063Z,10.00
2022-12-12T17:22:27.780Z,8.87
2022-12-12T17:25:00.942Z,8.70
2022-12-12T17:27:33.871Z,9.73
2022-12-12T17:30:08.620Z,8.23
2022-12-12T17:32:41.707Z,8.50
2022-12-12T17:35:16.063Z,7.03
2022-12-12T17:37:48.930Z,10.00
2022-12-12T17:40:21.939Z,8.33
2022-12-12T17:42:54.716Z,8.70
2022-12-12T17:45:27.725Z,8.63
2022-12-12T17:48:00.771Z,7.57
2022-12-12T17:50:39.979Z,7.83
2022-12-12T17:53:14.715Z,6.97
2022-12-12T17:55:53.711Z,8.33
2022-12-12T17:58:32.593Z,7.17
2022-12-12T18:01:10.565Z,7.33
2022-12-12T18:03:43.736Z,6.00
2022-12-12T18:06:18.503Z,6.07
2022-12-12T18:08:51.929Z,6.00
2022-12-12T18:11:28.669Z,5.47
2022-12-12T18:14:03.954Z,5.67
2022-12-12T18:16:37.355Z,6.80
2022-12-12T18:19:10.395Z,6.13
2022-12-12T18:22:02.652Z,5.10
2022-12-12T18:24:38.203Z,5.50
2022-12-12T18:27:10.939Z,5.37
2022-12-12T18:29:43.768Z,7.17
2022-12-12T18:32:16.736Z,5.90
2022-12-12T18:34:49.472Z,6.37
2022-12-12T18:37:23.716Z,7.33
2022-12-12T18:39:56.453Z,5.17
2022-12-12T18:42:29.159Z,5.90
2022-12-12T18:45:01.882Z,3.93
2022-12-12T18:47:34.650Z,8.03
2022-12-12T18:50:07.600Z,4.27
2022-12-12T18:52:41.807Z,5.57
2022-12-12T18:55:16.542Z,5.03
2022-12-12T18:57:50.762Z,9.37
2022-12-12T19:00:23.763Z,5.97
2022-12-12T19:02:56.730Z,5.40
2022-12-12T19:05:30.900Z,3.90
2022-12-12T19:08:05.505Z,5.07
2022-12-12T19:10:38.658Z,5.30
2022-12-12T19:13:14.010Z,6.50
2022-12-12T19:15:47.404Z,6.20
2022-12-12T19:18:20.371Z,7.27
2022-12-12T19:20:54.541Z,4.03
2022-12-12T19:23:28.759Z,6.40
2022-12-12T19:26:04.344Z,8.43
2022-12-12T19:28:37.238Z,6.90
2022-12-12T19:31:11.373Z,7.13
2022-12-12T19:33:44.380Z,6.37
2022-12-12T19:36:18.507Z,6.77
2022-12-12T19:38:53.292Z,7.87
2022-12-12T19:41:26.157Z,9.30
2022-12-12T19:44:08.602Z,8.07
2022-12-12T19:46:43.138Z,8.10
2022-12-12T19:49:18.035Z,8.27
2022-12-12T19:51:50.939Z,7.53
2022-12-12T19:54:25.234Z,8.17
2022-12-12T19:56:59.494Z,8.53
2022-12-12T19:59:32.387Z,6.90
2022-12-12T20:02:07.140Z,7.67
2022-12-12T20:04:44.232Z,12.23
2022-12-12T20:07:16.984Z,6.83
2022-12-12T20:09:51.256Z,8.13
2022-12-12T20:12:24.432Z,8.13
2022-12-12T20:14:57.261Z,8.40
2022-12-12T20:17:30.110Z,8.70
2022-12-12T20:20:04.298Z,8.07
2022-12-12T20:22:36.877Z,9.37
2022-12-12T20:25:11.328Z,9.27
2022-12-12T20:27:44.115Z,9.13
2022-12-12T20:30:17.239Z,9.57
2022-12-12T20:32:49.931Z,10.33
2022-12-12T20:35:22.664Z,9.67
2022-12-12T20:37:55.392Z,9.93
2022-12-12T20:40:29.664Z,11.60
2022-12-12T20:43:03.741Z,10.10
2022-12-12T20:45:39.170Z,12.07
2022-12-12T20:48:12.045Z,14.03
2022-12-12T20:50:46.088Z,15.10
2022-12-12T20:53:18.806Z,15.97
2022-12-12T20:55:53.189Z,18.37
2022-12-12T20:58:26.103Z,17.83
2022-12-12T21:00:58.971Z,16.80
2022-12-12T21:03:31.635Z,15.97
2022-12-12T21:06:11.054Z,16.37
2022-12-12T21:08:45.928Z,20.30
2022-12-12T21:11:20.962Z,22.23
2022-12-12T21:13:54.206Z,21.47
2022-12-12T21:16:28.566Z,24.20
2022-12-12T21:19:02.423Z,18.57
2022-12-12T21:21:35.242Z,18.57
2022-12-12T21:24:08.291Z,20.13
2022-12-12T21:26:42.475Z,18.30
2022-12-12T21:29:15.335Z,18.57
2022-12-12T21:31:52.055Z,20.57
2022-12-12T21:34:25.242Z,18.20
2022-12-12T21:37:00.587Z,18.10
2022-12-12T21:39:34.041Z,19.63
2022-12-12T21:42:10.472Z,20.63
2022-12-12T21:44:45.825Z,15.40
2022-12-12T21:47:18.861Z,16.80
2022-12-12T21:49:51.956Z,14.10
2022-12-12T21:52:24.784Z,16.40
2022-12-12T21:54:57.563Z,13.57
2022-12-12T21:57:31.693Z,13.20
2022-12-12T22:00:06.179Z,14.60
2022-12-12T22:02:38.954Z,14.07
2022-12-12T22:05:12.053Z,16.30
2022-12-12T22:07:45.037Z,12.70
2022-12-12T22:10:17.931Z,13.97
2022-12-12T22:12:57.062Z,12.10
2022-12-12T22:15:30.319Z,10.80
2022-12-12T22:18:03.005Z,11.37
2022-12-12T22:20:36.170Z,12.47
2022-12-12T22:23:08.975Z,12.00
2022-12-12T22:25:41.724Z,11.37
2022-12-12T22:28:15.807Z,10.60
2022-12-12T22:30:48.604Z,13.70
2022-12-12T22:33:22.193Z,12.63
2022-12-12T22:35:59.375Z,8.30
2022-12-12T22:38:37.698Z,9.93
2022-12-12T22:41:10.885Z,10.70
2022-12-12T22:43:46.125Z,7.23
2022-12-12T22:46:18.998Z,11.03
2022-12-12T22:48:52.078Z,12.30
2022-12-12T22:51:25.757Z,11.90
2022-12-12T22:53:59.376Z,12.93
2022-12-12T22:56:32.827Z,11.33
2022-12-12T22:59:07.538Z,9.83
2022-12-12T23:01:40.437Z,15.73
2022-12-12T23:04:14.087Z,14.17
2022-12-12T23:06:46.940Z,12.43
2022-12-12T23:09:20.782Z,13.77
2022-12-12T23:11:53.769Z,14.73
2022-12-12T23:14:27.889Z,14.43
2022-12-12T23:17:00.680Z,11.97
2022-12-12T23:19:33.495Z,12.13
2022-12-12T23:22:06.318Z,14.17
2022-12-12T23:24:39.331Z,14.00
2022-12-12T23:27:12.053Z,12.33
2022-12-12T23:29:46.155Z,14.57
2022-12-12T23:32:21.023Z,11.20
2022-12-12T23:34:53.850Z,15.50
2022-12-12T23:37:26.652Z,11.37
2022-12-12T23:40:00.704Z,13.17
2022-12-12T23:42:36.043Z,14.00
2022-12-12T23:45:10.879Z,13.90
2022-12-12T23:47:45.560Z,13.90
2022-12-12T23:50:20.363Z,13.47
2022-12-12T23:52:53.282Z,14.43
2022-12-12T23:55:26.740Z,16.40
2022-12-12T23:57:59.452Z,14.03
